Time;durP1;ratioP1;P1;durP2;ratioP2;P2;SDS_P1;SDS_P2;PMS_P1;PMS_P2;Temp;Humidity;BMP_temperature;BMP_pressure;BME280_temperature;BME280_humidity;BME280_pressure;Samples;Min_cycle;Max_cycle;Signal;HPM_P1;HPM_P2
2023/01/06 00:02:27;;;;;;;6.47;2.90;;;6.40;99.90;;;;;;5047922;28;20882;-54
2023/01/06 00:04:54;;;;;;;13.03;3.27;;;6.50;99.90;;;;;;5049099;28;20436;-53
2023/01/06 00:07:21;;;;;;;4.60;2.33;;;6.50;99.90;;;;;;5049108;28;20844;-52
2023/01/06 00:09:48;;;;;;;7.60;2.53;;;6.00;99.90;;;;;;5048314;28;21072;-54
2023/01/06 00:12:15;;;;;;;5.43;2.50;;;6.90;99.90;;;;;;5049044;28;20552;-55
2023/01/06 00:14:43;;;;;;;5.90;2.57;;;6.80;99.90;;;;;;5048849;28;20407;-53
2023/01/06 00:17:10;;;;;;;10.83;2.53;;;6.80;99.90;;;;;;5047795;28;20474;-54
2023/01/06 00:19:38;;;;;;;5.00;2.50;;;6.80;99.90;;;;;;5047135;28;20530;-54
2023/01/06 00:22:05;;;;;;;8.13;2.83;;;6.80;99.90;;;;;;5048927;28;20428;-52
2023/01/06 00:24:33;;;;;;;4.70;2.37;;;6.80;99.90;;;;;;5048855;28;20751;-56
2023/01/06 00:27:00;;;;;;;6.60;2.43;;;6.80;99.90;;;;;;5047652;28;20511;-53
2023/01/06 00:29:27;;;;;;;5.80;3.37;;;6.80;99.90;;;;;;5046815;28;20559;-53
2023/01/06 00:31:55;;;;;;;6.53;2.67;;;6.80;99.90;;;;;;5047560;28;20465;-53
2023/01/06 00:34:21;;;;;;;10.57;7.20;;;7.20;99.90;;;;;;5047571;28;20465;-54
2023/01/06 00:36:50;;;;;;;11.03;6.00;;;7.00;99.90;;;;;;5047494;28;20462;-54
2023/01/06 00:39:19;;;;;;;11.63;7.83;;;7.10;99.90;;;;;;5047266;28;20414;-54
2023/01/06 00:42:05;;;;;;;13.43;6.10;;;7.00;99.90;;;;;;5047507;28;20439;-54
2023/01/06 00:44:33;;;;;;;6.10;2.90;;;7.20;99.90;;;;;;5047513;28;20984;-54
2023/01/06 00:47:01;;;;;;;8.10;3.07;;;7.30;99.90;;;;;;5048821;28;20983;-54
2023/01/06 00:49:28;;;;;;;8.10;3.40;;;7.20;99.90;;;;;;5046602;28;20553;-54
2023/01/06 00:51:56;;;;;;;7.20;2.50;;;7.10;99.90;;;;;;5048476;28;20549;-55
2023/01/06 00:54:24;;;;;;;15.83;3.60;;;6.70;99.90;;;;;;5047417;28;20481;-54
2023/01/06 00:56:54;;;;;;;14.67;9.57;;;7.30;99.90;;;;;;5047355;28;20453;-55
2023/01/06 00:59:23;;;;;;;13.43;6.50;;;7.20;99.90;;;;;;5046268;28;20558;-54
2023/01/06 01:01:53;;;;;;;10.20;4.80;;;7.20;99.90;;;;;;5047186;28;20516;-54
2023/01/06 01:04:20;;;;;;;8.50;3.40;;;7.30;99.90;;;;;;5047304;28;20502;-55
2023/01/06 01:06:49;;;;;;;8.60;3.10;;;7.30;99.90;;;;;;5047141;28;20808;-56
2023/01/06 01:09:21;;;;;;;5.07;2.93;;;6.90;99.90;;;;;;5047743;28;20481;-55
2023/01/06 01:14:33;;;;;;;8.83;5.03;;;7.00;99.90;;;;;;5047148;27;20416;-55
2023/01/06 01:17:00;;;;;;;20.23;13.03;;;7.20;99.90;;;;;;5047102;28;21021;-55
2023/01/06 01:19:30;;;;;;;6.80;3.60;;;7.30;99.90;;;;;;5046241;28;20417;-55
2023/01/06 01:21:57;;;;;;;28.60;14.40;;;6.80;99.90;;;;;;5047126;28;20496;-54
2023/01/06 01:24:28;;;;;;;6.57;4.97;;;6.90;99.90;;;;;;5047333;28;20454;-54
2023/01/06 01:26:55;;;;;;;11.73;5.63;;;7.10;99.90;;;;;;5048475;28;20472;-54
2023/01/06 01:29:25;;;;;;;13.87;7.40;;;6.80;99.90;;;;;;5047512;28;20526;-55
2023/01/06 01:31:53;;;;;;;6.60;3.90;;;6.30;99.90;;;;;;5047967;28;20518;-55
2023/01/06 01:34:22;;;;;;;7.27;3.20;;;7.20;99.90;;;;;;5049537;28;20456;-55
2023/01/06 01:36:51;;;;;;;9.40;5.00;;;7.10;99.90;;;;;;5050297;28;20458;-54
2023/01/06 01:39:20;;;;;;;14.27;6.90;;;7.10;99.90;;;;;;5049685;27;20430;-55
2023/01/06 01:41:49;;;;;;;26.00;15.20;;;7.20;99.90;;;;;;5050058;28;20507;-55
2023/01/06 01:44:54;;;;;;;26.80;16.63;;;6.70;99.90;;;;;;5050174;28;20554;-55
2023/01/06 01:47:27;;;;;;;10.57;4.73;;;6.90;99.90;;;;;;5050072;28;20445;-54
2023/01/06 01:49:57;;;;;;;14.40;9.60;;;7.10;99.90;;;;;;5049330;28;20458;-55
2023/01/06 01:52:25;;;;;;;30.20;17.63;;;7.10;99.90;;;;;;5050078;28;21009;-54
2023/01/06 01:54:53;;;;;;;19.17;8.10;;;7.10;99.90;;;;;;5051159;28;20409;-54
2023/01/06 01:57:26;;;;;;;7.90;5.60;;;7.00;99.90;;;;;;5051199;28;20465;-54
2023/01/06 01:59:53;;;;;;;18.53;7.37;;;7.30;99.90;;;;;;5049213;28;20445;-54
2023/01/06 02:02:21;;;;;;;5.20;2.37;;;7.20;99.90;;;;;;5049706;28;20547;-54
2023/01/06 02:04:53;;;;;;;6.63;2.50;;;7.40;99.90;;;;;;5049761;28;20456;-54
2023/01/06 02:07:23;;;;;;;11.13;6.23;;;7.30;99.90;;;;;;5050005;28;20453;-54
2023/01/06 02:09:57;;;;;;;2.70;2.00;;;7.00;99.90;;;;;;5048993;28;20484;-53
2023/01/06 02:12:29;;;;;;;4.57;2.27;;;7.40;99.90;;;;;;5049713;28;20472;-57
2023/01/06 02:14:56;;;;;;;5.93;3.33;;;7.10;99.90;;;;;;5049523;28;20875;-53
2023/01/06 02:17:53;;;;;;;6.90;2.77;;;7.20;99.90;;;;;;5049639;28;20822;-54
2023/01/06 02:20:30;;;;;;;5.37;2.70;;;7.50;99.90;;;;;;5048841;28;20420;-54
2023/01/06 02:23:29;;;;;;;6.03;2.73;;;7.20;99.90;;;;;;5051076;28;20437;-55
2023/01/06 02:26:26;;;;;;;7.20;2.53;;;7.40;99.90;;;;;;5049007;28;20486;-54
2023/01/06 02:32:53;;;;;;;5.30;2.90;;;7.30;99.90;;;;;;5064728;28;20457;-54
2023/01/06 02:35:34;;;;;;;5.27;2.50;;;7.30;99.90;;;;;;5049301;28;20432;-54
2023/01/06 02:38:15;;;;;;;4.93;2.33;;;7.80;99.90;;;;;;5049370;28;20449;-54
2023/01/06 02:40:54;;;;;;;5.87;2.53;;;7.50;99.90;;;;;;5049815;28;20499;-54
2023/01/06 02:43:28;;;;;;;5.00;2.40;;;7.00;99.90;;;;;;5049313;28;20871;-54
2023/01/06 02:46:07;;;;;;;8.20;2.40;;;7.20;99.90;;;;;;5049368;28;20439;-54
2023/01/06 02:48:43;;;;;;;3.30;1.80;;;7.30;99.90;;;;;;5048420;27;20458;-54
2023/01/06 02:51:17;;;;;;;6.07;2.07;;;7.00;99.90;;;;;;5050427;28;20810;-55
2023/01/06 02:53:52;;;;;;;6.13;2.10;;;7.10;99.90;;;;;;5049150;28;20491;-54
2023/01/06 02:56:23;;;;;;;3.40;1.87;;;7.50;99.90;;;;;;5049330;28;20817;-53
2023/01/06 02:58:56;;;;;;;6.20;2.50;;;7.40;99.90;;;;;;5048312;28;20492;-53
2023/01/06 03:01:26;;;;;;;4.27;2.07;;;7.10;99.90;;;;;;5048470;28;20444;-53
2023/01/06 03:03:56;;;;;;;7.60;3.13;;;7.50;99.90;;;;;;5050292;28;20492;-54
2023/01/06 03:06:27;;;;;;;3.97;1.93;;;6.60;99.90;;;;;;5048800;28;20929;-53
2023/01/06 03:08:56;;;;;;;4.90;2.20;;;7.10;99.90;;;;;;5049584;28;20407;-54
2023/01/06 03:11:24;;;;;;;4.50;2.20;;;7.20;99.90;;;;;;5048727;27;20474;-53
2023/01/06 03:13:57;;;;;;;6.40;1.90;;;7.10;99.90;;;;;;5048777;27;20834;-53
2023/01/06 03:16:24;;;;;;;5.80;2.50;;;7.40;99.90;;;;;;5050530;28;20525;-54
2023/01/06 03:18:54;;;;;;;2.93;1.73;;;7.90;99.90;;;;;;5049464;28;20427;-53
2023/01/06 03:21:26;;;;;;;3.80;1.77;;;7.20;99.90;;;;;;5048736;28;21095;-54
2023/01/06 03:23:53;;;;;;;6.13;1.60;;;7.10;99.90;;;;;;5048663;28;20426;-53
2023/01/06 03:26:20;;;;;;;4.90;1.80;;;7.40;99.90;;;;;;5049904;28;20718;-53
2023/01/06 03:28:47;;;;;;;5.67;3.20;;;7.80;99.90;;;;;;5047784;28;20505;-54
2023/01/06 03:31:22;;;;;;;6.17;2.00;;;7.30;99.90;;;;;;5048412;28;20500;-54
2023/01/06 03:33:59;;;;;;;4.57;1.63;;;7.40;99.90;;;;;;5048632;28;20451;-54
2023/01/06 03:36:35;;;;;;;5.00;1.60;;;7.40;99.90;;;;;;5048437;28;20479;-54
2023/01/06 03:39:11;;;;;;;5.97;2.00;;;7.60;99.90;;;;;;5047772;28;20473;-54
2023/01/06 03:44:34;;;;;;;6.00;1.70;;;7.30;99.90;;;;;;5048539;27;20733;-55
2023/01/06 03:47:10;;;;;;;4.33;1.57;;;7.10;99.90;;;;;;5048281;28;20504;-54
2023/01/06 03:49:46;;;;;;;4.30;1.80;;;7.50;99.90;;;;;;5047773;28;20477;-54
2023/01/06 03:52:20;;;;;;;7.10;1.60;;;7.20;99.90;;;;;;5048138;28;20469;-53
2023/01/06 03:54:54;;;;;;;4.17;1.83;;;7.50;99.90;;;;;;5048211;28;20546;-55
2023/01/06 03:57:25;;;;;;;3.90;1.90;;;7.40;99.90;;;;;;5049004;28;20421;-54
2023/01/06 03:59:56;;;;;;;3.53;1.63;;;7.40;99.90;;;;;;5047330;27;20426;-54
2023/01/06 04:02:24;;;;;;;6.27;2.10;;;7.50;99.90;;;;;;5047954;27;20444;-55
2023/01/06 04:05:07;;;;;;;4.20;2.30;;;7.80;99.90;;;;;;5048394;28;20955;-54
2023/01/06 04:07:34;;;;;;;9.17;2.60;;;7.40;99.90;;;;;;5047989;28;20445;-54
2023/01/06 04:10:00;;;;;;;4.77;1.93;;;7.10;99.90;;;;;;5047277;27;20470;-54
2023/01/06 04:12:39;;;;;;;2.50;1.70;;;7.50;99.90;;;;;;5047908;28;20437;-55
2023/01/06 04:15:11;;;;;;;4.70;2.20;;;7.10;99.90;;;;;;5048060;28;20553;-54
2023/01/06 04:17:39;;;;;;;6.30;1.50;;;7.40;99.90;;;;;;5048380;28;20544;-54
2023/01/06 04:20:10;;;;;;;2.17;1.30;;;7.90;99.90;;;;;;5048517;28;20425;-55
2023/01/06 04:22:37;;;;;;;4.37;1.87;;;7.30;99.90;;;;;;5047967;28;21101;-54
2023/01/06 04:25:05;;;;;;;6.20;1.87;;;7.20;99.90;;;;;;5047605;28;21027;-55
2023/01/06 04:27:32;;;;;;;5.30;1.90;;;7.40;99.90;;;;;;5047773;28;20428;-55
2023/01/06 04:29:59;;;;;;;4.90;1.83;;;7.20;99.90;;;;;;5047015;28;20448;-54
2023/01/06 04:32:26;;;;;;;8.30;1.70;;;7.60;99.90;;;;;;5047500;28;21025;-54
2023/01/06 04:34:53;;;;;;;4.03;2.13;;;7.40;99.90;;;;;;5047555;28;20805;-55
2023/01/06 04:37:21;;;;;;;2.90;1.47;;;7.60;99.90;;;;;;5047488;27;21042;-55
2023/01/06 04:39:48;;;;;;;3.17;1.40;;;7.20;99.90;;;;;;5048378;28;20469;-56
2023/01/06 04:42:15;;;;;;;6.60;1.67;;;7.50;99.90;;;;;;5049004;28;20474;-55
2023/01/06 04:44:41;;;;;;;4.53;2.53;;;7.50;99.90;;;;;;5049067;28;20918;-55
2023/01/06 04:47:09;;;;;;;4.33;1.67;;;7.50;99.90;;;;;;5048624;28;20436;-55
2023/01/06 04:49:36;;;;;;;6.63;1.80;;;7.30;99.90;;;;;;5047921;28;20499;-55
2023/01/06 04:52:03;;;;;;;5.87;1.63;;;7.40;99.90;;;;;;5048629;28;20515;-56
2023/01/06 04:54:30;;;;;;;4.90;2.27;;;7.70;99.90;;;;;;5048743;28;20442;-55
2023/01/06 04:56:57;;;;;;;5.20;1.70;;;7.60;99.90;;;;;;5049143;28;20401;-54
2023/01/06 04:59:24;;;;;;;4.37;1.70;;;7.10;99.90;;;;;;5048053;28;20412;-54
2023/01/06 05:01:50;;;;;;;3.83;1.87;;;7.40;99.90;;;;;;5049053;28;20451;-55
2023/01/06 05:04:17;;;;;;;3.37;1.80;;;7.40;99.90;;;;;;5048518;28;20445;-55
2023/01/06 05:06:44;;;;;;;5.30;1.87;;;7.40;99.90;;;;;;5048658;28;20417;-54
2023/01/06 05:09:11;;;;;;;6.80;2.73;;;7.30;99.90;;;;;;5050454;28;20528;-55
2023/01/06 05:11:39;;;;;;;5.77;1.43;;;7.20;99.90;;;;;;5051908;28;20819;-56
2023/01/06 05:14:06;;;;;;;6.20;1.67;;;7.50;99.90;;;;;;5051739;27;20456;-55
2023/01/06 05:16:34;;;;;;;2.80;1.50;;;7.40;99.90;;;;;;5052185;27;20423;-55
2023/01/06 05:19:01;;;;;;;4.57;1.90;;;6.80;99.90;;;;;;5051573;28;20434;-54
2023/01/06 05:21:29;;;;;;;4.03;1.90;;;7.50;99.90;;;;;;5051770;28;20449;-55
2023/01/06 05:23:56;;;;;;;7.77;2.40;;;7.40;99.90;;;;;;5052019;27;20775;-55
2023/01/06 05:26:24;;;;;;;4.90;1.70;;;7.50;99.90;;;;;;5051686;28;20477;-55
2023/01/06 05:28:52;;;;;;;8.23;2.70;;;7.40;99.90;;;;;;5050923;28;20418;-54
2023/01/06 05:31:19;;;;;;;5.77;1.70;;;7.40;99.90;;;;;;5051467;28;20520;-56
2023/01/06 05:33:46;;;;;;;6.20;2.23;;;7.50;99.90;;;;;;5051790;28;20403;-55
2023/01/06 05:36:14;;;;;;;6.40;2.57;;;7.50;99.90;;;;;;5051461;28;20408;-55
2023/01/06 05:38:41;;;;;;;4.03;1.80;;;7.30;99.90;;;;;;5050745;28;20908;-55
2023/01/06 05:41:08;;;;;;;4.50;1.90;;;7.50;99.90;;;;;;5051235;28;20428;-56
2023/01/06 05:43:36;;;;;;;4.97;2.10;;;7.30;99.90;;;;;;5051609;28;20437;-54
2023/01/06 05:46:07;;;;;;;4.67;2.50;;;7.60;99.90;;;;;;5051463;28;20912;-54
2023/01/06 05:48:34;;;;;;;6.63;2.40;;;6.80;99.90;;;;;;5049479;28;20445;-55
2023/01/06 05:51:02;;;;;;;11.07;2.27;;;7.50;99.90;;;;;;5051122;27;20478;-55
2023/01/06 05:53:31;;;;;;;9.10;2.27;;;7.50;99.90;;;;;;5051308;28;20473;-55
2023/01/06 05:56:00;;;;;;;5.70;1.83;;;7.20;99.90;;;;;;5051189;28;20527;-55
2023/01/06 05:58:27;;;;;;;4.67;2.17;;;7.60;99.90;;;;;;5050662;28;20412;-55
2023/01/06 06:00:54;;;;;;;2.50;1.73;;;7.00;99.90;;;;;;5051400;28;20436;-55
2023/01/06 06:03:22;;;;;;;7.70;2.27;;;7.60;99.90;;;;;;5051145;28;20407;-55
2023/01/06 06:05:48;;;;;;;5.37;2.30;;;7.40;99.90;;;;;;5051225;28;20445;-56
2023/01/06 06:08:15;;;;;;;11.23;2.67;;;7.60;99.90;;;;;;5051096;28;20792;-55
2023/01/06 06:10:41;;;;;;;4.70;2.20;;;7.40;99.90;;;;;;5048908;28;20449;-55
2023/01/06 06:13:08;;;;;;;4.70;2.70;;;7.10;99.90;;;;;;5050933;28;20982;-56
2023/01/06 06:15:35;;;;;;;6.47;2.73;;;7.50;99.90;;;;;;5050918;28;20450;-55
2023/01/06 06:18:02;;;;;;;8.80;2.07;;;7.30;99.90;;;;;;5050810;27;20403;-56
2023/01/06 06:20:30;;;;;;;5.80;2.50;;;7.50;99.90;;;;;;5049703;28;20415;-55
2023/01/06 06:22:57;;;;;;;9.00;4.70;;;7.30;99.90;;;;;;5050686;28;20430;-55
2023/01/06 06:25:23;;;;;;;7.80;2.50;;;7.50;99.90;;;;;;5051270;28;20808;-55
2023/01/06 06:27:50;;;;;;;4.80;2.43;;;7.50;99.90;;;;;;5050689;28;20404;-54
2023/01/06 06:30:17;;;;;;;6.63;3.60;;;7.30;99.90;;;;;;5049937;28;20441;-55
2023/01/06 06:32:43;;;;;;;4.60;2.83;;;7.50;99.90;;;;;;5049966;28;20436;-56
2023/01/06 06:35:10;;;;;;;5.90;2.70;;;7.50;99.90;;;;;;5049299;28;20417;-55
2023/01/06 06:37:38;;;;;;;6.10;3.43;;;7.60;99.90;;;;;;5050991;28;20502;-55
2023/01/06 06:40:06;;;;;;;5.00;3.00;;;7.70;99.90;;;;;;5049893;28;20772;-54
2023/01/06 06:42:33;;;;;;;4.50;2.97;;;7.70;99.90;;;;;;5050124;28;20452;-55
2023/01/06 06:45:00;;;;;;;8.23;3.30;;;6.90;99.90;;;;;;5050132;28;20413;-55
2023/01/06 06:47:27;;;;;;;7.47;3.30;;;7.30;99.90;;;;;;5050332;28;20922;-55
2023/01/06 06:49:56;;;;;;;11.53;3.53;;;7.20;99.90;;;;;;5048451;28;20775;-55
2023/01/06 06:52:23;;;;;;;6.90;3.10;;;7.60;99.90;;;;;;5049728;28;20824;-56
2023/01/06 06:54:53;;;;;;;5.30;3.33;;;7.50;99.90;;;;;;5049943;28;20430;-54
2023/01/06 06:57:20;;;;;;;6.00;3.50;;;7.60;99.90;;;;;;5049556;28;20900;-56
2023/01/06 06:59:46;;;;;;;8.10;3.03;;;7.50;99.90;;;;;;5049156;28;20483;-55
2023/01/06 07:02:13;;;;;;;5.50;3.77;;;7.40;99.90;;;;;;5049588;27;20435;-55
2023/01/06 07:04:40;;;;;;;10.63;3.73;;;6.80;99.90;;;;;;5050173;28;20406;-55
2023/01/06 07:07:06;;;;;;;8.00;3.50;;;7.70;99.90;;;;;;5049951;28;20413;-56
2023/01/06 07:09:33;;;;;;;8.40;3.70;;;7.50;99.90;;;;;;5049874;28;20420;-53
2023/01/06 07:12:01;;;;;;;8.80;3.53;;;7.70;99.90;;;;;;5050062;28;20954;-54
2023/01/06 07:14:27;;;;;;;6.20;3.97;;;7.40;99.90;;;;;;5050049;28;20413;-55
2023/01/06 07:16:54;;;;;;;7.23;2.97;;;7.70;99.90;;;;;;5050188;28;20765;-54
2023/01/06 07:19:20;;;;;;;8.73;3.70;;;7.70;99.90;;;;;;5049125;28;20443;-54
2023/01/06 07:21:47;;;;;;;10.10;5.27;;;7.60;99.90;;;;;;5049854;28;20454;-56
2023/01/06 07:24:14;;;;;;;13.43;4.33;;;7.30;99.90;;;;;;5049734;28;20408;-55
2023/01/06 07:26:40;;;;;;;8.90;4.17;;;7.60;99.90;;;;;;5049470;28;20432;-54
2023/01/06 07:29:08;;;;;;;9.97;5.00;;;7.60;99.90;;;;;;5049066;28;20412;-55
2023/01/06 07:31:35;;;;;;;8.17;4.20;;;7.70;99.90;;;;;;5048294;28;20837;-54
2023/01/06 07:34:02;;;;;;;13.57;5.17;;;7.10;99.90;;;;;;5049265;28;20432;-54
2023/01/06 07:36:28;;;;;;;6.83;4.40;;;7.70;99.90;;;;;;5049666;28;20888;-55
2023/01/06 07:38:55;;;;;;;10.20;4.10;;;7.40;99.90;;;;;;5048950;28;20423;-54
2023/01/06 07:41:21;;;;;;;9.23;5.00;;;7.70;99.90;;;;;;5049703;28;20455;-54
2023/01/06 07:43:48;;;;;;;10.57;5.10;;;7.60;99.90;;;;;;5049381;28;20508;-54
2023/01/06 07:46:16;;;;;;;13.80;6.97;;;6.90;99.90;;;;;;5049242;28;20616;-54
2023/01/06 07:48:43;;;;;;;11.90;5.03;;;7.30;99.90;;;;;;5048474;28;20441;-54
2023/01/06 07:51:09;;;;;;;12.50;5.87;;;7.50;99.90;;;;;;5049375;28;20448;-54
2023/01/06 07:53:36;;;;;;;10.80;5.37;;;7.70;99.90;;;;;;5049748;27;20430;-53
2023/01/06 07:56:02;;;;;;;6.90;5.10;;;7.40;99.90;;;;;;5049099;28;20634;-54
2023/01/06 07:58:29;;;;;;;9.97;5.50;;;7.40;99.90;;;;;;5048910;28;20401;-55
2023/01/06 08:00:56;;;;;;;9.20;5.67;;;7.30;99.90;;;;;;5048688;28;20806;-57
2023/01/06 08:03:24;;;;;;;9.53;5.67;;;7.00;99.90;;;;;;5048971;28;20409;-54
2023/01/06 08:05:50;;;;;;;6.77;5.40;;;7.10;99.90;;;;;;5047594;28;20542;-54
2023/01/06 08:08:17;;;;;;;9.53;6.60;;;7.60;99.90;;;;;;5049137;28;20454;-55
2023/01/06 08:10:44;;;;;;;12.40;7.00;;;7.50;99.90;;;;;;5048236;28;20435;-55
2023/01/06 08:13:11;;;;;;;11.90;6.53;;;7.80;99.90;;;;;;5048866;28;20444;-54
2023/01/06 08:15:39;;;;;;;13.20;6.60;;;7.80;99.90;;;;;;5047248;28;20452;-56
2023/01/06 08:18:06;;;;;;;14.80;6.37;;;7.70;99.90;;;;;;5048787;28;20439;-54
2023/01/06 08:20:34;;;;;;;10.10;6.40;;;7.80;99.90;;;;;;5048039;28;20409;-54
2023/01/06 08:23:01;;;;;;;7.50;6.40;;;7.80;99.90;;;;;;5048802;28;20409;-54
2023/01/06 08:25:28;;;;;;;11.63;6.77;;;7.80;99.90;;;;;;5048701;28;20459;-54
2023/01/06 08:27:55;;;;;;;11.43;6.30;;;8.00;99.90;;;;;;5048732;28;20416;-54
2023/01/06 08:30:21;;;;;;;10.90;7.00;;;7.90;99.90;;;;;;5048254;28;20422;-54
2023/01/06 08:32:48;;;;;;;8.90;7.10;;;7.60;99.90;;;;;;5048501;28;20500;-55
2023/01/06 08:35:15;;;;;;;13.10;7.83;;;7.90;99.90;;;;;;5048657;28;20523;-55
2023/01/06 08:37:43;;;;;;;8.97;6.73;;;7.60;99.90;;;;;;5048678;28;20409;-56
2023/01/06 08:40:11;;;;;;;10.07;7.90;;;7.70;99.90;;;;;;5047709;27;20450;-55
2023/01/06 08:42:37;;;;;;;19.43;8.00;;;7.70;99.90;;;;;;5049646;28;20432;-54
2023/01/06 08:45:06;;;;;;;13.93;7.03;;;7.50;99.90;;;;;;5050509;28;20791;-55
2023/01/06 08:47:33;;;;;;;11.13;8.00;;;7.90;99.90;;;;;;5052005;28;20421;-55
2023/01/06 08:49:59;;;;;;;11.47;7.03;;;7.40;99.90;;;;;;5051479;28;20812;-55
2023/01/06 08:52:27;;;;;;;12.10;7.63;;;8.00;99.90;;;;;;5052111;28;20460;-55
2023/01/06 08:54:55;;;;;;;13.83;8.23;;;7.80;99.90;;;;;;5051882;28;20846;-54
2023/01/06 08:57:21;;;;;;;12.73;8.07;;;8.00;99.90;;;;;;5052128;28;20416;-54
2023/01/06 08:59:48;;;;;;;10.10;7.37;;;8.20;99.90;;;;;;5051088;28;20409;-55
2023/01/06 09:02:15;;;;;;;10.00;8.10;;;7.90;99.90;;;;;;5052063;28;20421;-55
2023/01/06 09:04:41;;;;;;;16.07;9.30;;;8.10;99.90;;;;;;5051980;28;20496;-55
2023/01/06 09:07:08;;;;;;;15.27;9.70;;;8.00;99.90;;;;;;5051774;28;20752;-54
2023/01/06 09:09:34;;;;;;;11.57;8.67;;;8.00;99.90;;;;;;5051326;28;20424;-55
2023/01/06 09:12:03;;;;;;;17.43;9.40;;;8.30;99.90;;;;;;5051605;28;20460;-55
2023/01/06 09:14:29;;;;;;;13.73;8.73;;;8.00;99.90;;;;;;5052249;28;20406;-55
2023/01/06 09:16:56;;;;;;;15.07;9.40;;;8.10;99.90;;;;;;5051286;28;20409;-56
2023/01/06 09:19:23;;;;;;;16.10;10.53;;;8.20;99.90;;;;;;5050867;28;20433;-56
2023/01/06 09:21:50;;;;;;;20.77;10.83;;;8.20;99.90;;;;;;5051677;28;20795;-55
2023/01/06 09:24:16;;;;;;;13.20;10.60;;;8.10;99.90;;;;;;5051470;28;20429;-55
2023/01/06 09:26:43;;;;;;;14.27;11.00;;;8.30;99.90;;;;;;5051288;28;20446;-54
2023/01/06 09:29:11;;;;;;;26.33;18.00;;;8.40;99.90;;;;;;5050651;28;20424;-55
2023/01/06 09:31:37;;;;;;;29.10;16.03;;;8.70;99.90;;;;;;5051469;28;20474;-54
2023/01/06 09:34:04;;;;;;;18.53;14.17;;;8.20;99.90;;;;;;5051309;28;20420;-54
2023/01/06 09:36:33;;;;;;;15.37;11.27;;;8.80;99.90;;;;;;5051389;28;20434;-54
2023/01/06 09:39:00;;;;;;;17.80;12.10;;;8.60;99.90;;;;;;5050310;28;20444;-54
2023/01/06 09:41:51;;;;;;;16.00;11.33;;;8.40;99.90;;;;;;5051154;28;20932;-54
2023/01/06 09:44:22;;;;;;;22.83;11.63;;;8.80;99.90;;;;;;5051066;28;20398;-55
2023/01/06 09:46:51;;;;;;;20.57;11.17;;;8.10;99.90;;;;;;5051171;28;20405;-54
2023/01/06 09:49:24;;;;;;;17.93;10.90;;;8.50;99.90;;;;;;5049931;27;20496;-54
2023/01/06 09:51:53;;;;;;;13.73;10.27;;;9.00;99.90;;;;;;5050861;28;20461;-54
2023/01/06 09:54:22;;;;;;;18.97;11.20;;;8.40;99.90;;;;;;5050456;28;20768;-54
2023/01/06 09:56:53;;;;;;;14.70;11.53;;;8.70;99.90;;;;;;5051385;28;20441;-55
2023/01/06 09:59:28;;;;;;;21.17;14.63;;;8.70;99.90;;;;;;5050731;27;20483;-54
2023/01/06 10:01:58;;;;;;;18.13;12.20;;;8.10;99.90;;;;;;5050961;28;20805;-54
2023/01/06 10:04:27;;;;;;;15.27;12.30;;;8.70;99.90;;;;;;5051021;28;20898;-55
2023/01/06 10:07:06;;;;;;;16.60;12.97;;;9.20;99.90;;;;;;5051300;28;20410;-55
2023/01/06 10:09:40;;;;;;;19.67;14.20;;;8.90;99.90;;;;;;5049815;28;20483;-55
2023/01/06 10:12:18;;;;;;;20.83;14.17;;;8.80;99.90;;;;;;5050318;28;20455;-55
2023/01/06 10:14:56;;;;;;;24.33;15.27;;;8.90;99.90;;;;;;5050862;28;20411;-56
2023/01/06 10:17:37;;;;;;;24.93;14.53;;;9.00;99.90;;;;;;5050559;28;20417;-55
2023/01/06 10:20:14;;;;;;;21.00;15.60;;;9.40;99.90;;;;;;5050310;28;20433;-55
2023/01/06 10:22:50;;;;;;;17.70;14.00;;;9.10;99.90;;;;;;5050840;28;20937;-55
2023/01/06 10:25:19;;;;;;;21.37;14.40;;;9.10;99.90;;;;;;5050840;28;20450;-55
2023/01/06 10:27:50;;;;;;;18.63;12.40;;;9.10;99.90;;;;;;5048910;28;20922;-55
2023/01/06 10:30:22;;;;;;;15.63;13.90;;;9.10;99.90;;;;;;5049818;27;20435;-55
2023/01/06 10:32:50;;;;;;;21.00;13.10;;;9.40;99.90;;;;;;5050325;28;20801;-56
2023/01/06 10:35:20;;;;;;;15.70;12.77;;;9.20;99.90;;;;;;5050492;28;20427;-55
2023/01/06 10:37:49;;;;;;;16.43;11.80;;;9.30;99.90;;;;;;5050515;28;20921;-55
2023/01/06 10:40:21;;;;;;;20.63;13.40;;;9.20;99.90;;;;;;5050015;28;20417;-54
2023/01/06 10:42:58;;;;;;;16.97;12.50;;;9.20;99.90;;;;;;5050288;28;20459;-56
2023/01/06 10:45:31;;;;;;;14.70;12.70;;;9.20;99.90;;;;;;5050762;28;20431;-55
2023/01/06 10:48:00;;;;;;;16.23;12.57;;;9.40;99.90;;;;;;5050633;28;20435;-55
2023/01/06 10:50:27;;;;;;;18.20;12.07;;;9.40;99.90;;;;;;5050095;28;20622;-55
2023/01/06 10:52:54;;;;;;;22.53;14.67;;;10.00;99.90;;;;;;5050174;28;20852;-54
2023/01/06 10:55:32;;;;;;;19.43;15.03;;;9.20;99.90;;;;;;5050454;28;20928;-55
2023/01/06 10:58:05;;;;;;;18.23;15.43;;;9.60;99.90;;;;;;5050438;28;20912;-56
2023/01/06 11:00:33;;;;;;;20.63;13.43;;;9.60;99.90;;;;;;5049795;28;20445;-55
2023/01/06 11:03:04;;;;;;;18.00;14.70;;;9.60;99.90;;;;;;5050126;28;20466;-54
2023/01/06 11:05:32;;;;;;;19.83;15.15;;;9.90;99.90;;;;;;5048141;28;20443;-55
2023/01/06 11:08:05;;;;;;;19.60;13.73;;;9.80;99.90;;;;;;5049907;28;20275;-55
2023/01/06 11:10:36;;;;;;;14.43;12.20;;;9.80;99.90;;;;;;5048617;28;20410;-54
2023/01/06 11:13:04;;;;;;;16.17;12.63;;;9.90;99.90;;;;;;5049833;28;20453;-55
2023/01/06 11:15:41;;;;;;;15.83;13.17;;;10.00;99.90;;;;;;5049931;28;20786;-55
2023/01/06 11:18:20;;;;;;;15.33;12.40;;;9.50;99.90;;;;;;5049639;28;20446;-55
2023/01/06 11:21:01;;;;;;;13.70;11.67;;;10.10;99.90;;;;;;5048797;28;20852;-56
2023/01/06 11:23:29;;;;;;;16.73;12.80;;;10.00;99.90;;;;;;5048294;28;20423;-55
2023/01/06 11:26:11;;;;;;;13.93;11.07;;;9.70;99.90;;;;;;5049571;28;20457;-55
2023/01/06 11:28:39;;;;;;;14.50;11.40;;;9.60;99.90;;;;;;5048862;28;20420;-54
2023/01/06 11:31:09;;;;;;;12.90;11.50;;;9.80;99.90;;;;;;5049399;28;20455;-54
2023/01/06 11:33:38;;;;;;;19.23;12.10;;;9.20;99.90;;;;;;5049491;28;20441;-54
2023/01/06 11:36:10;;;;;;;19.13;12.20;;;9.80;99.90;;;;;;5049577;28;20733;-54
2023/01/06 11:38:46;;;;;;;12.80;10.60;;;10.10;99.90;;;;;;5048472;28;20931;-54
2023/01/06 11:41:19;;;;;;;15.90;10.40;;;9.80;99.90;;;;;;5049295;28;20428;-56
2023/01/06 11:43:46;;;;;;;19.20;12.40;;;9.90;99.90;;;;;;5050619;28;20435;-55
2023/01/06 11:46:15;;;;;;;14.97;13.00;;;10.10;99.90;;;;;;5050264;28;20476;-56
2023/01/06 11:48:46;;;;;;;13.20;10.90;;;10.00;99.90;;;;;;5048647;28;20413;-54
2023/01/06 11:51:13;;;;;;;19.90;12.10;;;10.00;99.90;;;;;;5048966;28;20429;-54
2023/01/06 11:53:54;;;;;;;14.27;10.97;;;9.80;99.90;;;;;;5049138;28;20463;-54
2023/01/06 11:56:20;;;;;;;13.10;10.60;;;9.70;99.90;;;;;;5049064;28;20962;-55
2023/01/06 11:58:56;;;;;;;12.23;9.93;;;10.10;99.90;;;;;;5047205;28;20431;-56
2023/01/06 12:01:31;;;;;;;13.03;10.67;;;9.90;99.90;;;;;;5048900;28;20968;-55
2023/01/06 12:04:07;;;;;;;13.77;11.53;;;10.00;99.90;;;;;;5049259;28;20409;-55
2023/01/06 12:06:37;;;;;;;23.93;21.17;;;10.50;99.90;;;;;;5048987;28;20444;-55
2023/01/06 12:09:10;;;;;;;19.93;11.97;;;10.20;99.90;;;;;;5048632;28;20446;-55
2023/01/06 12:11:45;;;;;;;25.67;13.40;;;10.20;99.90;;;;;;5048938;28;20802;-55
2023/01/06 12:14:15;;;;;;;12.80;10.30;;;10.00;99.90;;;;;;5048660;28;20852;-55
2023/01/06 12:16:53;;;;;;;12.53;9.00;;;10.30;99.90;;;;;;5048100;28;20406;-54
2023/01/06 12:19:31;;;;;;;13.80;9.77;;;10.20;99.90;;;;;;5048106;28;20414;-55
2023/01/06 12:21:58;;;;;;;12.67;9.03;;;10.20;99.90;;;;;;5048847;28;20451;-55
2023/01/06 12:24:28;;;;;;;11.40;9.40;;;9.80;99.90;;;;;;5048473;28;20433;-54
2023/01/06 12:26:55;;;;;;;11.03;9.80;;;10.50;99.90;;;;;;5048560;28;20421;-55
2023/01/06 12:29:23;;;;;;;11.90;10.63;;;10.40;99.90;;;;;;5048066;28;20442;-54
2023/01/06 12:31:59;;;;;;;12.33;10.13;;;10.40;99.90;;;;;;5048773;28;20462;-54
2023/01/06 12:34:30;;;;;;;14.10;10.27;;;10.70;99.90;;;;;;5048963;28;20463;-55
2023/01/06 12:37:10;;;;;;;13.97;9.77;;;10.50;99.90;;;;;;5048374;28;20814;-55
2023/01/06 12:39:44;;;;;;;11.77;9.30;;;10.40;99.90;;;;;;5047633;28;20483;-56
2023/01/06 12:42:20;;;;;;;13.73;10.00;;;10.30;99.90;;;;;;5048469;28;20425;-56
2023/01/06 12:44:50;;;;;;;11.90;10.00;;;10.70;99.90;;;;;;5048403;28;20493;-56
2023/01/06 12:47:24;;;;;;;13.07;9.07;;;10.60;99.90;;;;;;5048477;28;20402;-56
2023/01/06 12:49:55;;;;;;;15.07;9.00;;;10.40;99.90;;;;;;5047104;27;20448;-56
2023/01/06 12:52:27;;;;;;;13.77;8.73;;;10.60;99.90;;;;;;5047909;28;20999;-54
2023/01/06 12:54:57;;;;;;;15.00;7.80;;;10.60;99.90;;;;;;5047959;28;20436;-53
2023/01/06 12:57:44;;;;;;;9.10;7.03;;;11.00;99.90;;;;;;5048286;28;20436;-54
2023/01/06 13:00:34;;;;;;;10.33;7.20;;;10.70;99.90;;;;;;5047162;28;20439;-55
2023/01/06 13:03:33;;;;;;;11.53;7.30;;;11.10;99.90;;;;;;5048282;28;20445;-56
2023/01/06 13:06:16;;;;;;;7.40;6.10;;;10.70;99.90;;;;;;5046742;28;20451;-56
2023/01/06 13:08:59;;;;;;;8.40;6.50;;;10.90;99.90;;;;;;5047835;28;20907;-56
2023/01/06 13:11:39;;;;;;;8.60;6.60;;;11.10;99.90;;;;;;5046235;28;20450;-55
2023/01/06 13:14:17;;;;;;;11.70;7.10;;;10.70;99.90;;;;;;5047773;28;21200;-56